Time;durP1;ratioP1;P1;durP2;ratioP2;P2;SDS_P1;SDS_P2;PMS_P1;PMS_P2;Temp;Humidity;BMP_temperature;BMP_pressure;BME280_temperature;BME280_humidity;BME280_pressure;Samples;Min_cycle;Max_cycle;Signal;HPM_P1;HPM_P2
2023/03/11 00:00:12;;;;;;;;;;;0.90;99.90;;;;;;4967312;28;19926;-72
2023/03/11 00:02:39;;;;;;;;;;;0.90;99.90;;;;;;4971039;28;20021;-71
2023/03/11 00:05:06;;;;;;;;;;;0.80;99.90;;;;;;4967153;28;19926;-71
2023/03/11 00:07:32;;;;;;;;;;;0.80;99.90;;;;;;4967409;28;20322;-71
2023/03/11 00:09:59;;;;;;;;;;;0.80;99.90;;;;;;4967564;28;19926;-70
2023/03/11 00:12:26;;;;;;;;;;;0.80;99.90;;;;;;4971459;28;19948;-70
2023/03/11 00:14:53;;;;;;;;;;;0.80;99.90;;;;;;4964177;28;20030;-70
2023/03/11 00:17:21;;;;;;;;;;;0.80;99.90;;;;;;4969633;28;19936;-70
2023/03/11 00:19:47;;;;;;;;;;;0.80;99.90;;;;;;4969927;28;19926;-71
2023/03/11 00:22:14;;;;;;;;;;;0.70;99.90;;;;;;4964217;28;19936;-71
2023/03/11 00:24:40;;;;;;;;;;;0.70;99.90;;;;;;4961913;28;19926;-70
2023/03/11 00:27:07;;;;;;;;;;;0.70;99.90;;;;;;4970433;28;19927;-71
2023/03/11 00:29:34;;;;;;;;;;;0.70;99.90;;;;;;4964641;28;19926;-70
2023/03/11 00:32:00;;;;;;;;;;;0.70;99.90;;;;;;4971411;28;20016;-71
2023/03/11 00:34:28;;;;;;;;;;;0.60;99.90;;;;;;4964993;28;19926;-71
2023/03/11 00:36:55;;;;;;;;;;;0.60;99.90;;;;;;4968431;28;20020;-70
2023/03/11 00:39:22;;;;;;;;;;;0.60;99.90;;;;;;4971413;28;20012;-70
2023/03/11 00:41:49;;;;;;;;;;;0.60;99.90;;;;;;4970996;28;20300;-70
2023/03/11 00:44:16;;;;;;;;;;;0.60;99.90;;;;;;4959964;28;20022;-71
2023/03/11 00:46:42;;;;;;;;;;;0.60;99.90;;;;;;4969792;28;19934;-70
2023/03/11 00:49:10;;;;;;;;;;;0.50;99.90;;;;;;4956756;28;19927;-70
2023/03/11 00:51:38;;;;;;;;;;;0.50;99.90;;;;;;4968276;28;19930;-70
2023/03/11 00:54:04;;;;;;;;;;;0.50;99.90;;;;;;4969885;28;20298;-70
2023/03/11 00:56:31;;;;;;;;;;;0.40;99.90;;;;;;4971325;28;19926;-70
2023/03/11 00:58:58;;;;;;;;;;;0.40;99.90;;;;;;4970208;28;19941;-71
2023/03/11 01:01:24;;;;;;;;;;;0.40;99.90;;;;;;4970156;28;19933;-70
2023/03/11 01:03:51;;;;;;;;;;;0.40;99.90;;;;;;4969500;28;20005;-71
2023/03/11 01:06:17;;;;;;;;;;;0.40;99.90;;;;;;4968822;28;20025;-71
2023/03/11 01:08:45;;;;;;;;;;;0.40;99.90;;;;;;4964477;28;19934;-70
2023/03/11 01:11:12;;;;;;;;;;;0.40;99.90;;;;;;4971208;28;19933;-70
2023/03/11 01:13:40;;;;;;;;;;;0.40;99.90;;;;;;4967794;28;20021;-71
2023/03/11 01:16:08;;;;;;;;;;;0.40;99.90;;;;;;4969638;28;19930;-69
2023/03/11 01:18:34;;;;;;;;;;;0.40;99.90;;;;;;4970365;28;19927;-70
2023/03/11 01:21:01;;;;;;;;;;;0.30;99.90;;;;;;4963278;28;19933;-70
2023/03/11 01:23:28;;;;;;;;;;;0.30;99.90;;;;;;4960336;28;20410;-70
2023/03/11 01:25:56;;;;;;;;;;;0.30;99.90;;;;;;4965710;28;19926;-70
2023/03/11 01:28:23;;;;;;;;;;;0.30;99.90;;;;;;4964272;28;19956;-71
2023/03/11 01:30:49;;;;;;;;;;;0.40;99.90;;;;;;4966473;28;20440;-70
2023/03/11 01:33:18;;;;;;;;;;;0.40;99.90;;;;;;4965078;28;19926;-70
2023/03/11 01:35:45;;;;;;;;;;;0.50;99.90;;;;;;4961161;28;20003;-70
2023/03/11 01:38:12;;;;;;;;;;;0.50;99.90;;;;;;4965038;28;19977;-70
2023/03/11 01:40:39;;;;;;;;;;;0.50;99.90;;;;;;4964053;28;19926;-70
2023/03/11 01:43:27;;;;;;;;;;;0.50;99.90;;;;;;4962411;28;20038;-71
2023/03/11 01:46:09;;;;;;;;;;;0.40;99.90;;;;;;4964539;28;20029;-69
2023/03/11 01:48:37;;;;;;;;;;;0.40;99.90;;;;;;4965707;28;20008;-70
2023/03/11 01:51:04;;;;;;;;;;;0.40;99.90;;;;;;4964943;28;20472;-70
2023/03/11 01:53:31;;;;;;;;;;;0.40;99.90;;;;;;4964277;28;19932;-70
2023/03/11 01:55:58;;;;;;;;;;;0.40;99.90;;;;;;4966498;28;19980;-70
2023/03/11 01:58:28;;;;;;;;;;;0.50;99.90;;;;;;4965762;28;20365;-71
2023/03/11 02:00:56;;;;;;;;;;;0.40;99.90;;;;;;4967424;28;19926;-70
2023/03/11 02:03:25;;;;;;;;;;;0.50;99.90;;;;;;4968726;28;19969;-70
2023/03/11 02:05:53;;;;;;;;;;;0.40;99.90;;;;;;4966699;28;20004;-70
2023/03/11 02:08:20;;;;;;;;;;;0.40;99.90;;;;;;4962981;28;20359;-71
2023/03/11 02:10:48;;;;;;;;;;;0.40;99.90;;;;;;4966839;28;20448;-70
2023/03/11 02:13:15;;;;;;;;;;;0.40;99.90;;;;;;4968209;28;19930;-70
2023/03/11 02:15:44;;;;;;;;;;;0.40;99.90;;;;;;4964238;28;19933;-70
2023/03/11 02:18:13;;;;;;;;;;;0.40;99.90;;;;;;4967688;28;20377;-71
2023/03/11 02:20:43;;;;;;;;;;;0.40;99.90;;;;;;4968002;28;20347;-70
2023/03/11 02:23:11;;;;;;;;;;;0.40;99.90;;;;;;4961091;28;19926;-70
2023/03/11 02:25:42;;;;;;;;;;;0.50;99.90;;;;;;4962121;28;20009;-69
2023/03/11 02:28:11;;;;;;;;;;;0.50;99.90;;;;;;4967731;28;20060;-70
2023/03/11 02:30:40;;;;;;;;;;;0.50;99.90;;;;;;4965163;28;20484;-70
2023/03/11 02:33:07;;;;;;;;;;;0.60;99.90;;;;;;4962284;28;20463;-69
2023/03/11 02:35:34;;;;;;;;;;;0.60;99.90;;;;;;4963376;28;19927;-69
2023/03/11 02:38:01;;;;;;;;;;;0.60;99.90;;;;;;4967248;28;19940;-70
2023/03/11 02:40:38;;;;;;;;;;;0.60;99.90;;;;;;4967248;28;19930;-69
2023/03/11 02:43:07;;;;;;;;;;;0.50;99.90;;;;;;4965809;28;20471;-69
2023/03/11 02:45:36;;;;;;;;;;;0.40;99.90;;;;;;4962611;28;19930;-69
2023/03/11 02:48:02;;;;;;;;;;;0.40;99.90;;;;;;4963784;28;20013;-70
2023/03/11 02:50:30;;;;;;;;;;;0.30;99.90;;;;;;4965403;28;19926;-69
2023/03/11 02:52:57;;;;;;;;;;;0.20;99.90;;;;;;4964901;28;20367;-69
2023/03/11 02:55:23;;;;;;;;;;;0.20;99.90;;;;;;4963108;28;20348;-69
2023/03/11 02:57:50;;;;;;;;;;;0.20;99.90;;;;;;4957766;28;19930;-69
2023/03/11 03:00:17;;;;;;;;;;;0.10;99.90;;;;;;4962701;28;20385;-69
2023/03/11 03:02:50;;;;;;;;;;;0.10;99.90;;;;;;4964652;28;20019;-69
2023/03/11 03:05:17;;;;;;;;;;;0.20;99.90;;;;;;4961812;28;19937;-69
2023/03/11 03:07:44;;;;;;;;;;;0.20;99.90;;;;;;4961752;28;19974;-69
2023/03/11 03:10:12;;;;;;;;;;;0.20;99.90;;;;;;4957224;28;20014;-69
2023/03/11 03:12:38;;;;;;;;;;;0.10;99.90;;;;;;4963343;28;19930;-69
2023/03/11 03:15:06;;;;;;;;;;;0.10;99.90;;;;;;4969929;28;19996;-70
2023/03/11 03:17:33;;;;;;;;;;;0.10;99.90;;;;;;4963106;28;20417;-70
2023/03/11 03:20:04;;;;;;;;;;;0.10;99.90;;;;;;4963994;28;20003;-70
2023/03/11 03:22:31;;;;;;;;;;;0.10;99.90;;;;;;4968883;28;20013;-69
2023/03/11 03:24:58;;;;;;;;;;;0.00;99.90;;;;;;4967606;28;20442;-69
2023/03/11 03:27:25;;;;;;;;;;;0.10;99.90;;;;;;4970097;28;20465;-69
2023/03/11 03:29:51;;;;;;;;;;;0.10;99.90;;;;;;4959141;28;19926;-69
2023/03/11 03:32:18;;;;;;;;;;;0.10;99.90;;;;;;4963124;28;19933;-69
2023/03/11 03:34:45;;;;;;;;;;;0.10;99.90;;;;;;4968738;28;19926;-69
2023/03/11 03:37:13;;;;;;;;;;;0.20;99.90;;;;;;4964467;28;20025;-70
2023/03/11 03:39:39;;;;;;;;;;;0.20;99.90;;;;;;4962805;28;20032;-70
2023/03/11 03:42:06;;;;;;;;;;;0.20;99.90;;;;;;4971040;28;19930;-69
2023/03/11 03:44:33;;;;;;;;;;;0.20;99.90;;;;;;4964926;28;19926;-70
2023/03/11 03:47:00;;;;;;;;;;;0.20;99.90;;;;;;4968936;28;20480;-69
2023/03/11 03:49:27;;;;;;;;;;;0.10;99.90;;;;;;4965766;28;20032;-70
2023/03/11 03:51:53;;;;;;;;;;;0.10;99.90;;;;;;4970666;28;20025;-69
2023/03/11 03:54:21;;;;;;;;;;;0.10;99.90;;;;;;4965631;28;20459;-69
2023/03/11 03:56:48;;;;;;;;;;;0.10;99.90;;;;;;4971177;28;20292;-69
2023/03/11 03:59:15;;;;;;;;;;;0.20;99.90;;;;;;4964863;28;19970;-69
2023/03/11 04:01:41;;;;;;;;;;;0.20;99.90;;;;;;4959812;28;20364;-69
2023/03/11 04:04:08;;;;;;;;;;;0.20;99.90;;;;;;4963319;28;19926;-69
2023/03/11 04:06:35;;;;;;;;;;;0.20;99.90;;;;;;4970342;28;19968;-69
2023/03/11 04:09:02;;;;;;;;;;;0.20;99.90;;;;;;4966795;28;19926;-69
2023/03/11 04:11:31;;;;;;;;;;;0.10;99.90;;;;;;4963730;28;20038;-68
2023/03/11 04:13:58;;;;;;;;;;;0.10;99.90;;;;;;4964945;28;19930;-68
2023/03/11 04:16:25;;;;;;;;;;;0.00;99.90;;;;;;4962373;28;20333;-68
2023/03/11 04:18:51;;;;;;;;;;;0.00;99.90;;;;;;4967396;28;20468;-68
2023/03/11 04:21:18;;;;;;;;;;;-0.10;99.90;;;;;;4964878;28;20016;-68
2023/03/11 04:23:45;;;;;;;;;;;-0.10;99.90;;;;;;4968827;28;19931;-69
2023/03/11 04:26:12;;;;;;;;;;;-0.20;99.90;;;;;;4967392;28;19934;-69
2023/03/11 04:28:40;;;;;;;;;;;-0.20;99.90;;;;;;4968652;28;20007;-69
2023/03/11 04:31:07;;;;;;;;;;;-0.20;99.90;;;;;;4965570;28;20020;-69
2023/03/11 04:33:33;;;;;;;;;;;-0.30;99.90;;;;;;4968358;28;19926;-69
2023/03/11 04:36:04;;;;;;;;;;;-0.30;99.90;;;;;;4963273;28;19933;-70
2023/03/11 04:38:31;;;;;;;;;;;-0.30;99.90;;;;;;4960226;28;19927;-70
2023/03/11 04:40:59;;;;;;;;;;;-0.30;99.90;;;;;;4962217;28;20282;-70
2023/03/11 04:43:26;;;;;;;;;;;-0.30;99.90;;;;;;4969904;28;20367;-70
2023/03/11 04:45:54;;;;;;;;;;;-0.30;99.90;;;;;;4963480;28;19934;-70
2023/03/11 04:48:21;;;;;;;;;;;-0.50;99.90;;;;;;4968404;28;20033;-70
2023/03/11 04:50:48;;;;;;;;;;;-0.50;99.90;;;;;;4962828;28;19968;-70
2023/03/11 04:53:14;;;;;;;;;;;-0.60;99.90;;;;;;4967021;28;19926;-68
2023/03/11 04:55:41;;;;;;;;;;;-0.60;99.90;;;;;;4964929;28;20293;-69
2023/03/11 04:58:08;;;;;;;;;;;-0.50;99.90;;;;;;4965920;28;19926;-69
2023/03/11 05:00:35;;;;;;;;;;;-0.60;99.90;;;;;;4966526;28;20025;-69
2023/03/11 05:03:03;;;;;;;;;;;-0.60;99.90;;;;;;4968938;28;19992;-68
2023/03/11 05:05:29;;;;;;;;;;;-0.50;99.90;;;;;;4967799;28;19953;-69
2023/03/11 05:07:56;;;;;;;;;;;-0.50;99.90;;;;;;4965792;28;19926;-69
2023/03/11 05:10:23;;;;;;;;;;;-0.40;99.90;;;;;;4960192;28;19926;-69
2023/03/11 05:12:50;;;;;;;;;;;-0.50;99.90;;;;;;4968255;28;20018;-69
2023/03/11 05:15:16;;;;;;;;;;;-0.50;99.90;;;;;;4968050;28;19930;-70
2023/03/11 05:17:43;;;;;;;;;;;-0.60;99.90;;;;;;4961006;28;19938;-70
2023/03/11 05:20:12;;;;;;;;;;;-0.60;99.90;;;;;;4961932;28;20393;-70
2023/03/11 05:22:38;;;;;;;;;;;-0.70;99.90;;;;;;4968074;28;19926;-70
2023/03/11 05:25:05;;;;;;;;;;;-0.70;99.90;;;;;;4965761;28;19926;-70
2023/03/11 05:27:32;;;;;;;;;;;-0.80;99.90;;;;;;4962583;28;19926;-69
2023/03/11 05:29:59;;;;;;;;;;;-0.90;99.90;;;;;;4963593;28;20032;-69
2023/03/11 05:32:26;;;;;;;;;;;-0.90;99.90;;;;;;4966958;28;19930;-69
2023/03/11 05:34:52;;;;;;;;;;;-0.90;99.90;;;;;;4967888;28;19926;-69
2023/03/11 05:37:20;;;;;;;;;;;-0.90;99.90;;;;;;4960130;28;19926;-69
2023/03/11 05:39:47;;;;;;;;;;;-0.90;99.90;;;;;;4961875;28;19935;-69
2023/03/11 05:42:14;;;;;;;;;;;-0.70;99.90;;;;;;4964030;28;19926;-69
2023/03/11 05:44:41;;;;;;;;;;;-0.60;99.90;;;;;;4963169;28;19926;-69
2023/03/11 05:47:21;;;;;;;;;;;-0.50;99.90;;;;;;4963508;28;19930;-69
2023/03/11 05:49:50;;;;;;;;;;;-0.50;99.90;;;;;;4962911;28;19956;-70
2023/03/11 05:52:17;;;;;;;;;;;-0.40;99.90;;;;;;4965119;28;19971;-70
2023/03/11 05:54:51;;;;;;;;;;;-0.40;99.90;;;;;;4960465;28;20335;-69
2023/03/11 05:57:21;;;;;;;;;;;-0.40;99.90;;;;;;4961444;28;19933;-69
2023/03/11 05:59:47;;;;;;;;;;;-0.40;99.90;;;;;;4962034;28;20375;-69
2023/03/11 06:02:14;;;;;;;;;;;-0.40;99.90;;;;;;4964222;28;19926;-69
2023/03/11 06:04:41;;;;;;;;;;;-0.50;99.90;;;;;;4964697;28;19926;-69
2023/03/11 06:07:08;;;;;;;;;;;-0.50;99.90;;;;;;4969299;28;19930;-69
2023/03/11 06:09:35;;;;;;;;;;;-0.60;99.90;;;;;;4966845;28;19965;-68
2023/03/11 06:12:04;;;;;;;;;;;-0.60;99.90;;;;;;4961745;28;19933;-69
2023/03/11 06:14:32;;;;;;;;;;;-0.60;99.90;;;;;;4963304;28;20262;-68
2023/03/11 06:16:59;;;;;;;;;;;-0.60;99.90;;;;;;4967144;28;19972;-68
2023/03/11 06:19:26;;;;;;;;;;;-0.60;99.90;;;;;;4967486;28;20036;-68
2023/03/11 06:21:53;;;;;;;;;;;-0.60;99.90;;;;;;4964421;28;19933;-69
2023/03/11 06:24:20;;;;;;;;;;;-0.60;99.90;;;;;;4956998;28;19938;-68
2023/03/11 06:26:50;;;;;;;;;;;-0.70;99.90;;;;;;4966458;28;19933;-69
2023/03/11 06:29:18;;;;;;;;;;;-0.60;99.90;;;;;;4963240;28;20013;-69
2023/03/11 06:31:45;;;;;;;;;;;-0.70;99.90;;;;;;4966285;28;19942;-69
2023/03/11 06:34:12;;;;;;;;;;;-0.70;99.90;;;;;;4963894;28;19927;-69
2023/03/11 06:36:38;;;;;;;;;;;-0.70;99.90;;;;;;4965364;28;19926;-68
2023/03/11 06:39:05;;;;;;;;;;;-0.60;99.90;;;;;;4964151;28;20012;-69
2023/03/11 06:41:33;;;;;;;;;;;-0.50;99.90;;;;;;4958230;28;19935;-67
2023/03/11 06:44:00;;;;;;;;;;;-0.50;99.90;;;;;;4961431;28;19966;-67
2023/03/11 06:46:28;;;;;;;;;;;-0.40;99.90;;;;;;4958241;28;19975;-68
2023/03/11 06:48:54;;;;;;;;;;;-0.40;99.90;;;;;;4963351;28;19972;-68
2023/03/11 06:51:21;;;;;;;;;;;-0.30;99.90;;;;;;4963000;28;20637;-67
2023/03/11 06:53:49;;;;;;;;;;;-0.30;99.90;;;;;;4965250;28;19930;-66
2023/03/11 06:56:15;;;;;;;;;;;-0.10;99.90;;;;;;4959468;28;20273;-68
2023/03/11 06:58:43;;;;;;;;;;;0.00;99.90;;;;;;4962053;28;20027;-68
2023/03/11 07:01:11;;;;;;;;;;;0.00;99.90;;;;;;4962710;28;20389;-69
2023/03/11 07:03:40;;;;;;;;;;;0.10;99.90;;;;;;4959858;28;19936;-69
2023/03/11 07:06:08;;;;;;;;;;;0.10;99.90;;;;;;4966734;28;19926;-68
2023/03/11 07:08:35;;;;;;;;;;;0.20;99.90;;;;;;4965607;28;19926;-69
2023/03/11 07:11:03;;;;;;;;;;;0.30;99.90;;;;;;4957204;28;19926;-68
2023/03/11 07:13:30;;;;;;;;;;;0.30;99.90;;;;;;4958823;28;19934;-68
2023/03/11 07:16:01;;;;;;;;;;;0.40;99.90;;;;;;4962831;28;19934;-69
2023/03/11 07:18:28;;;;;;;;;;;0.40;99.90;;;;;;4966891;28;19927;-69
2023/03/11 07:20:56;;;;;;;;;;;0.50;99.90;;;;;;4962493;28;20021;-69
2023/03/11 07:23:23;;;;;;;;;;;0.50;99.90;;;;;;4965350;28;20012;-69
2023/03/11 07:25:50;;;;;;;;;;;0.60;99.90;;;;;;4961397;28;19957;-69
2023/03/11 07:28:17;;;;;;;;;;;0.60;99.90;;;;;;4966578;28;19926;-69
2023/03/11 07:30:45;;;;;;;;;;;0.60;99.90;;;;;;4962126;28;19926;-69
2023/03/11 07:33:12;;;;;;;;;;;0.70;99.90;;;;;;4967266;28;19933;-69
2023/03/11 07:35:38;;;;;;;;;;;0.80;99.90;;;;;;4959234;28;20446;-69
2023/03/11 07:38:07;;;;;;;;;;;0.80;99.90;;;;;;4961427;28;20049;-68
2023/03/11 07:40:33;;;;;;;;;;;0.90;99.90;;;;;;4962802;28;19935;-69
2023/03/11 07:43:00;;;;;;;;;;;1.00;99.90;;;;;;4955812;28;19933;-67
2023/03/11 07:45:27;;;;;;;;;;;1.10;99.90;;;;;;4964164;28;19927;-67
2023/03/11 07:47:54;;;;;;;;;;;1.20;99.90;;;;;;4960600;28;19954;-67
2023/03/11 07:50:21;;;;;;;;;;;1.30;99.90;;;;;;4964603;28;19933;-67
2023/03/11 07:52:48;;;;;;;;;;;1.40;99.90;;;;;;4964513;28;19945;-67
2023/03/11 07:55:16;;;;;;;;;;;1.50;99.90;;;;;;4963656;28;20008;-69
2023/03/11 07:57:43;;;;;;;;;;;2.20;99.90;;;;;;4961913;28;20031;-69
2023/03/11 08:00:11;;;;;;;;;;;4.20;99.90;;;;;;4959920;28;20448;-69
2023/03/11 08:02:38;;;;;;;;;;;6.10;99.90;;;;;;4961235;28;19926;-67
2023/03/11 08:05:05;;;;;;;;;;;8.60;99.90;;;;;;4967388;28;19926;-69
2023/03/11 08:07:31;;;;;;;;;;;10.30;99.90;;;;;;4965237;28;19927;-66
2023/03/11 08:09:58;;;;;;;;;;;11.90;99.90;;;;;;4968777;28;19932;-68
2023/03/11 08:12:26;;;;;;;;;;;13.00;87.10;;;;;;4968625;28;19927;-68
2023/03/11 08:14:53;;;;;;;;;;;13.80;59.60;;;;;;4968816;28;19926;-68
2023/03/11 08:17:19;;;;;;;;;;;15.10;49.90;;;;;;4966278;28;19926;-71
2023/03/11 08:19:46;;;;;;;;;;;15.20;41.10;;;;;;4965606;28;19926;-69
2023/03/11 08:22:13;;;;;;;;;;;15.40;37.50;;;;;;4966067;28;19933;-67
2023/03/11 08:24:39;;;;;;;;;;;15.40;37.70;;;;;;4963763;28;19944;-67
2023/03/11 08:27:06;;;;;;;;;;;15.90;33.70;;;;;;4965722;28;19926;-68
2023/03/11 08:29:34;;;;;;;;;;;16.00;31.80;;;;;;4961898;28;19926;-68
2023/03/11 08:32:01;;;;;;;;;;;15.60;30.10;;;;;;4969093;28;19927;-67
2023/03/11 08:34:27;;;;;;;;;;;15.10;30.60;;;;;;4963502;28;20691;-68
2023/03/11 08:36:54;;;;;;;;;;;15.20;30.80;;;;;;4970092;28;20009;-67
2023/03/11 08:39:22;;;;;;;;;;;15.80;29.10;;;;;;4964498;28;20017;-66
2023/03/11 08:41:49;;;;;;;;;;;15.90;28.90;;;;;;4965027;28;19953;-67
2023/03/11 08:44:16;;;;;;;;;;;16.20;27.90;;;;;;4965363;28;19969;-68
2023/03/11 08:46:44;;;;;;;;;;;15.90;27.50;;;;;;4964901;28;19962;-68
2023/03/11 08:49:10;;;;;;;;;;;16.10;28.20;;;;;;4961176;28;19933;-66
2023/03/11 08:51:37;;;;;;;;;;;16.50;26.60;;;;;;4967895;28;20022;-66
2023/03/11 08:54:04;;;;;;;;;;;16.30;26.10;;;;;;4963533;28;19926;-67
2023/03/11 08:56:31;;;;;;;;;;;16.60;26.60;;;;;;4963555;28;20020;-69
2023/03/11 08:58:58;;;;;;;;;;;17.00;25.90;;;;;;4960446;28;19930;-68
2023/03/11 09:01:25;;;;;;;;;;;17.50;25.10;;;;;;4966499;28;20378;-67
2023/03/11 09:03:53;;;;;;;;;;;17.20;24.30;;;;;;4965045;28;20022;-67
2023/03/11 09:06:19;;;;;;;;;;;16.40;24.10;;;;;;4967349;28;19934;-67
2023/03/11 09:08:47;;;;;;;;;;;16.30;24.50;;;;;;4965655;28;19934;-68
2023/03/11 09:11:14;;;;;;;;;;;16.50;23.70;;;;;;4965133;28;20029;-68
2023/03/11 09:13:41;;;;;;;;;;;16.30;23.20;;;;;;4970111;28;20043;-68
2023/03/11 09:16:08;;;;;;;;;;;16.40;21.90;;;;;;4969555;28;19927;-68
2023/03/11 09:18:34;;;;;;;;;;;16.50;20.90;;;;;;4962661;28;19926;-66
2023/03/11 09:21:02;;;;;;;;;;;16.20;18.60;;;;;;4959181;28;19976;-66
2023/03/11 09:23:29;;;;;;;;;;;15.40;19.10;;;;;;4963200;28;19926;-68
2023/03/11 09:25:56;;;;;;;;;;;16.00;18.70;;;;;;4967497;28;20093;-68
2023/03/11 09:28:23;;;;;;;;;;;15.80;18.80;;;;;;4966830;28;19969;-67
2023/03/11 09:30:49;;;;;;;;;;;15.50;18.30;;;;;;4960249;28;19958;-67
2023/03/11 09:33:16;;;;;;;;;;;15.60;19.10;;;;;;4967615;28;20024;-67
2023/03/11 09:35:43;;;;;;;;;;;16.10;17.80;;;;;;4964461;28;19932;-68
2023/03/11 09:38:11;;;;;;;;;;;15.30;17.00;;;;;;4968048;28;20285;-69
2023/03/11 09:40:46;;;;;;;;;;;15.20;16.20;;;;;;4964119;28;19950;-70
2023/03/11 09:43:18;;;;;;;;;;;15.80;16.50;;;;;;4965688;28;19926;-68
2023/03/11 09:45:49;;;;;;;;;;;16.00;13.20;;;;;;4963953;28;19941;-67
2023/03/11 09:48:20;;;;;;;;;;;14.70;13.00;;;;;;4962201;28;19934;-66
2023/03/11 09:50:49;;;;;;;;;;;14.40;14.20;;;;;;4966455;28;20013;-66
2023/03/11 09:53:22;;;;;;;;;;;12.50;14.90;;;;;;4964855;28;19926;-66
2023/03/11 09:55:49;;;;;;;;;;;11.10;15.90;;;;;;4962461;28;19980;-67
2023/03/11 09:58:19;;;;;;;;;;;10.00;16.50;;;;;;4967909;28;20423;-66
2023/03/11 10:00:46;;;;;;;;;;;9.40;19.50;;;;;;4965560;28;19991;-67
2023/03/11 10:03:17;;;;;;;;;;;9.20;19.40;;;;;;4962083;28;19933;-65
2023/03/11 10:05:45;;;;;;;;;;;9.10;20.10;;;;;;4965014;28;19926;-66
2023/03/11 10:08:15;;;;;;;;;;;8.90;20.90;;;;;;4958516;28;19926;-66
2023/03/11 10:10:45;;;;;;;;;;;8.90;19.90;;;;;;4964821;28;19926;-66
2023/03/11 10:13:16;;;;;;;;;;;8.80;20.20;;;;;;4963430;28;20375;-68
2023/03/11 10:15:47;;;;;;;;;;;8.20;19.20;;;;;;4966320;28;19930;-69
2023/03/11 10:18:23;;;;;;;;;;;8.10;20.50;;;;;;4967940;28;19930;-69
2023/03/11 10:20:56;;;;;;;;;;;8.40;20.60;;;;;;4966556;28;19936;-68
2023/03/11 10:23:26;;;;;;;;;;;8.70;22.10;;;;;;4958869;28;20301;-68
2023/03/11 10:25:57;;;;;;;;;;;8.60;22.10;;;;;;4961604;28;19984;-69
2023/03/11 10:28:25;;;;;;;;;;;8.70;22.10;;;;;;4954607;28;19934;-68
2023/03/11 10:30:54;;;;;;;;;;;8.60;22.00;;;;;;4968115;28;19926;-68
2023/03/11 10:33:24;;;;;;;;;;;8.70;22.60;;;;;;4961077;28;20017;-68
2023/03/11 10:35:52;;;;;;;;;;;8.90;22.60;;;;;;4959581;28;19948;-68
2023/03/11 10:38:19;;;;;;;;;;;9.00;21.90;;;;;;4964859;28;19926;-68
2023/03/11 10:40:47;;;;;;;;;;;8.80;21.70;;;;;;4951867;28;19933;-68
2023/03/11 10:43:17;;;;;;;;;;;8.80;21.20;;;;;;4962785;28;19940;-68
2023/03/11 10:45:47;;;;;;;;;;;8.80;21.00;;;;;;4966474;28;19934;-68
2023/03/11 10:48:15;;;;;;;;;;;8.60;21.00;;;;;;4967568;28;19930;-69
2023/03/11 10:50:54;;;;;;;;;;;8.50;20.70;;;;;;4963624;28;19927;-68
2023/03/11 10:53:21;;;;;;;;;;;8.40;21.30;;;;;;4959926;28;19961;-68
2023/03/11 10:55:49;;;;;;;;;;;8.50;22.60;;;;;;4962351;28;20014;-68
2023/03/11 10:58:20;;;;;;;;;;;8.70;22.70;;;;;;4965050;28;20296;-67
2023/03/11 11:00:46;;;;;;;;;;;8.60;20.80;;;;;;4961352;28;20057;-68
2023/03/11 11:03:20;;;;;;;;;;;8.30;20.70;;;;;;4964129;28;19926;-68
2023/03/11 11:05:56;;;;;;;;;;;7.50;21.80;;;;;;4960938;28;20633;-69
2023/03/11 11:08:23;;;;;;;;;;;7.80;22.90;;;;;;4958185;28;20096;-68
2023/03/11 11:10:50;;;;;;;;;;;8.10;22.60;;;;;;4964732;28;19926;-69
2023/03/11 11:13:19;;;;;;;;;;;8.30;21.30;;;;;;4962758;28;20288;-68
2023/03/11 11:15:54;;;;;;;;;;;8.50;21.80;;;;;;4963901;28;20021;-68
2023/03/11 11:18:25;;;;;;;;;;;8.30;21.70;;;;;;4964983;28;19934;-68
2023/03/11 11:20:57;;;;;;;;;;;8.10;21.60;;;;;;4961161;28;20341;-67
2023/03/11 11:23:25;;;;;;;;;;;8.10;22.50;;;;;;4965506;28;19933;-68
2023/03/11 11:25:56;;;;;;;;;;;8.40;22.10;;;;;;4966071;28;19926;-68
2023/03/11 11:28:24;;;;;;;;;;;8.60;21.40;;;;;;4963409;28;19932;-69
2023/03/11 11:30:52;;;;;;;;;;;8.60;21.00;;;;;;4966236;28;20328;-69
2023/03/11 11:33:21;;;;;;;;;;;8.70;20.90;;;;;;4967440;28;20320;-66
2023/03/11 11:35:50;;;;;;;;;;;8.90;20.50;;;;;;4967085;28;20312;-67
2023/03/11 11:38:16;;;;;;;;;;;9.00;19.40;;;;;;4966809;28;20381;-67
2023/03/11 11:40:43;;;;;;;;;;;9.10;17.50;;;;;;4966839;28;19926;-68
2023/03/11 11:43:12;;;;;;;;;;;9.10;17.70;;;;;;4969007;28;19926;-69
2023/03/11 11:45:42;;;;;;;;;;;8.80;17.90;;;;;;4958848;28;20025;-69
2023/03/11 11:48:14;;;;;;;;;;;8.60;18.40;;;;;;4961952;28;19927;-67
2023/03/11 11:50:42;;;;;;;;;;;8.70;18.40;;;;;;4967522;28;20032;-67
2023/03/11 11:53:13;;;;;;;;;;;8.50;18.00;;;;;;4969075;28;19926;-69
2023/03/11 11:55:44;;;;;;;;;;;8.00;18.80;;;;;;4963152;28;19926;-68
2023/03/11 11:58:12;;;;;;;;;;;8.10;20.10;;;;;;4966512;28;19995;-69
2023/03/11 12:00:50;;;;;;;;;;;8.10;20.30;;;;;;4966104;28;19926;-69
2023/03/11 12:03:35;;;;;;;;;;;7.90;21.10;;;;;;4969503;28;20312;-68
2023/03/11 12:06:06;;;;;;;;;;;8.00;21.50;;;;;;4969361;28;19954;-68
2023/03/11 12:08:39;;;;;;;;;;;8.10;20.30;;;;;;4968349;28;20351;-69
2023/03/11 12:11:07;;;;;;;;;;;8.10;20.60;;;;;;4962858;28;19986;-67
2023/03/11 12:13:53;;;;;;;;;;;8.30;22.10;;;;;;4964289;28;19950;-67
2023/03/11 12:16:30;;;;;;;;;;;8.60;21.30;;;;;;4966433;28;19933;-68
2023/03/11 12:18:59;;;;;;;;;;;8.60;21.00;;;;;;4968188;28;19933;-68
2023/03/11 12:21:34;;;;;;;;;;;8.40;20.90;;;;;;4967729;28;20296;-68
2023/03/11 12:24:08;;;;;;;;;;;8.50;20.80;;;;;;4964996;28;20026;-68
2023/03/11 12:26:37;;;;;;;;;;;8.70;21.00;;;;;;4968709;28;19934;-68
2023/03/11 12:29:06;;;;;;;;;;;8.70;20.60;;;;;;4966945;28;19926;-68
2023/03/11 12:31:37;;;;;;;;;;;8.30;21.20;;;;;;4969579;28;19980;-66
2023/03/11 12:34:06;;;;;;;;;;;8.70;21.70;;;;;;4963861;28;20439;-67
2023/03/11 12:36:34;;;;;;;;;;;9.00;21.30;;;;;;4970923;28;19948;-67
2023/03/11 12:39:04;;;;;;;;;;;9.20;19.90;;;;;;4964892;28;20059;-69
2023/03/11 12:41:32;;;;;;;;;;;9.30;18.70;;;;;;4971587;28;19933;-68
2023/03/11 12:44:03;;;;;;;;;;;9.10;19.10;;;;;;4970375;28;19976;-67
2023/03/11 12:46:48;;;;;;;;;;;9.00;18.60;;;;;;4969408;28;20033;-68
2023/03/11 12:49:22;;;;;;;;;;;9.00;18.20;;;;;;4962270;28;20017;-67
2023/03/11 12:52:00;;;;;;;;;;;9.00;19.20;;;;;;4962218;28;19932;-68
2023/03/11 12:54:29;;;;;;;;;;;8.90;19.50;;;;;;4971020;28;19953;-68
2023/03/11 12:56:57;;;;;;;;;;;8.70;19.90;;;;;;4968517;28;19930;-66
2023/03/11 12:59:47;;;;;;;;;;;8.90;21.60;;;;;;4965570;28;20282;-67
2023/03/11 13:02:24;;;;;;;;;;;8.80;21.50;;;;;;4969119;28;19953;-68
2023/03/11 13:04:56;;;;;;;;;;;9.00;21.30;;;;;;4968463;28;19926;-67
2023/03/11 13:07:36;;;;;;;;;;;9.20;20.40;;;;;;4971095;28;19933;-67
2023/03/11 13:10:05;;;;;;;;;;;9.20;20.40;;;;;;4970987;28;19926;-67
2023/03/11 13:12:39;;;;;;;;;;;9.00;20.80;;;;;;4967940;28;19926;-67
2023/03/11 13:15:25;;;;;;;;;;;9.20;21.10;;;;;;4966137;28;19935;-68
2023/03/11 13:17:59;;;;;;;;;;;9.50;20.50;;;;;;4971291;28;20017;-68
2023/03/11 13:20:50;;;;;;;;;;;8.80;20.00;;;;;;4966899;28;19927;-69
2023/03/11 13:23:25;;;;;;;;;;;7.90;23.40;;;;;;4970575;28;19971;-69
2023/03/11 13:26:19;;;;;;;;;;;8.00;23.70;;;;;;4969072;28;20059;-67
2023/03/11 13:29:00;;;;;;;;;;;8.30;23.40;;;;;;4958146;28;20044;-68
2023/03/11 13:31:41;;;;;;;;;;;8.70;24.00;;;;;;4969122;28;19937;-68
2023/03/11 13:34:14;;;;;;;;;;;9.00;23.20;;;;;;4962067;28;19929;-69
2023/03/11 13:36:45;;;;;;;;;;;8.80;22.80;;;;;;4964840;28;20422;-69
2023/03/11 13:39:20;;;;;;;;;;;9.00;22.70;;;;;;4962445;28;19930;-68
2023/03/11 13:41:47;;;;;;;;;;;9.10;22.60;;;;;;4963056;28;19927;-68
2023/03/11 13:44:16;;;;;;;;;;;9.10;21.80;;;;;;4961602;28;19931;-68
2023/03/11 13:46:48;;;;;;;;;;;9.00;21.20;;;;;;4964179;28;20313;-69
2023/03/11 13:49:22;;;;;;;;;;;9.20;20.80;;;;;;4966864;28;20300;-67
2023/03/11 13:51:49;;;;;;;;;;;9.40;21.10;;;;;;4968874;28;19933;-68
2023/03/11 13:54:31;;;;;;;;;;;9.20;21.10;;;;;;4969474;28;20017;-67
2023/03/11 13:56:58;;;;;;;;;;;8.80;20.90;;;;;;4968776;28;20305;-68
2023/03/11 13:59:26;;;;;;;;;;;8.70;21.70;;;;;;4966960;28;19926;-68
2023/03/11 14:01:53;;;;;;;;;;;8.80;23.10;;;;;;5013591;28;19929;-68
2023/03/11 14:04:20;;;;;;;;;;;9.10;22.90;;;;;;4972035;28;20021;-68
2023/03/11 14:06:47;;;;;;;;;;;9.50;21.70;;;;;;4961702;28;19948;-68
2023/03/11 14:09:18;;;;;;;;;;;9.80;20.90;;;;;;4968113;28;20018;-68
2023/03/11 14:11:47;;;;;;;;;;;10.10;20.10;;;;;;4960066;28;20017;-67
2023/03/11 14:14:32;;;;;;;;;;;9.90;19.30;;;;;;4956822;28;19958;-68
2023/03/11 14:17:00;;;;;;;;;;;10.00;19.00;;;;;;4965693;28;19927;-68
2023/03/11 14:19:27;;;;;;;;;;;9.50;18.30;;;;;;4955222;28;19927;-68
2023/03/11 14:21:54;;;;;;;;;;;9.60;18.70;;;;;;4954048;28;19934;-69
2023/03/11 14:24:22;;;;;;;;;;;9.70;18.00;;;;;;4962588;28;20455;-68
2023/03/11 14:26:53;;;;;;;;;;;9.80;17.80;;;;;;4995672;23;19932;-68
2023/03/11 14:29:22;;;;;;;;;;;9.80;18.90;;;;;;5037554;28;19948;-70
2023/03/11 14:31:48;;;;;;;;;;;9.60;18.70;;;;;;5040314;28;19925;-69
2023/03/11 14:34:16;;;;;;;;;;;9.60;19.20;;;;;;5033688;28;19929;-69